Time;durP1;ratioP1;P1;durP2;ratioP2;P2;SDS_P1;SDS_P2;PMS_P1;PMS_P2;Temp;Humidity;BMP_temperature;BMP_pressure;BME280_temperature;BME280_humidity;BME280_pressure;Samples;Min_cycle;Max_cycle;Signal;HPM_P1;HPM_P2
2020/12/01 00:00:30;;;;;;;37.93;20.60;;;0.40;99.90;;;;;;4975751;28;20187;-78
2020/12/01 00:03:02;;;;;;;40.87;21.37;;;0.40;99.90;;;;;;4979330;28;20201;-78
2020/12/01 00:05:28;;;;;;;37.67;20.40;;;0.40;99.90;;;;;;4980405;28;20219;-77
2020/12/01 00:07:54;;;;;;;42.43;21.97;;;0.40;99.90;;;;;;4980747;28;20184;-77
2020/12/01 00:10:21;;;;;;;39.97;20.60;;;0.30;99.90;;;;;;4981063;28;20211;-77
2020/12/01 00:12:48;;;;;;;40.23;22.07;;;0.30;99.90;;;;;;4980887;28;20232;-77
2020/12/01 00:15:29;;;;;;;;;;;;;;;;;;;;;
2020/12/01 00:17:56;;;;;;;43.63;21.93;;;0.20;99.90;;;;;;4975492;28;20594;-76
2020/12/01 00:20:23;;;;;;;39.47;20.63;;;0.10;99.90;;;;;;4981194;28;20188;-77
2020/12/01 00:22:51;;;;;;;41.90;21.83;;;0.10;99.90;;;;;;4981257;28;20223;-77
2020/12/01 00:25:18;;;;;;;40.47;21.97;;;0.10;99.90;;;;;;4980567;28;20594;-77
2020/12/01 00:27:43;;;;;;;42.30;21.93;;;0.20;99.90;;;;;;4981125;28;20180;-77
2020/12/01 00:30:22;;;;;;;40.20;20.77;;;0.20;99.90;;;;;;4981350;28;20188;-77
2020/12/01 00:32:49;;;;;;;36.10;20.53;;;0.30;99.90;;;;;;4980720;28;20399;-77
2020/12/01 00:35:21;;;;;;;40.13;21.50;;;0.30;99.90;;;;;;4981596;28;20208;-77
2020/12/01 00:38:01;;;;;;;37.53;21.03;;;0.40;99.90;;;;;;4980609;28;20240;-77
2020/12/01 00:40:27;;;;;;;36.43;20.03;;;0.50;99.90;;;;;;4980472;28;20272;-77
2020/12/01 00:42:52;;;;;;;39.43;21.23;;;0.50;99.90;;;;;;4981477;28;20232;-78
2020/12/01 00:45:19;;;;;;;37.17;21.80;;;0.50;99.90;;;;;;4981957;28;20176;-77
2020/12/01 00:47:45;;;;;;;35.20;21.10;;;0.60;99.90;;;;;;4981528;28;20188;-78
2020/12/01 00:50:19;;;;;;;35.20;20.97;;;0.60;99.90;;;;;;4981287;28;20268;-77
2020/12/01 00:52:46;;;;;;;36.40;20.17;;;0.60;99.90;;;;;;4980399;28;20203;-77
2020/12/01 00:55:12;;;;;;;35.07;19.77;;;0.60;99.90;;;;;;4979911;28;20791;-77
2020/12/01 00:57:38;;;;;;;34.37;20.90;;;0.50;99.90;;;;;;4980228;28;20183;-76
2020/12/01 01:00:11;;;;;;;65.07;26.43;;;0.60;99.90;;;;;;4982471;28;20187;-77
2020/12/01 01:02:39;;;;;;;37.47;19.57;;;0.60;99.90;;;;;;4979845;28;20228;-76
2020/12/01 01:05:05;;;;;;;33.30;19.83;;;0.60;99.90;;;;;;4980042;28;20222;-78
2020/12/01 01:07:31;;;;;;;32.77;20.00;;;0.60;99.90;;;;;;4979172;28;20181;-77
2020/12/01 01:09:57;;;;;;;38.93;19.30;;;0.60;99.90;;;;;;4979207;28;20187;-77
2020/12/01 01:12:22;;;;;;;39.70;20.97;;;0.60;99.90;;;;;;4967443;28;20611;-77
2020/12/01 01:14:48;;;;;;;35.63;18.80;;;0.50;99.90;;;;;;4979285;28;20191;-77
2020/12/01 01:17:13;;;;;;;37.73;21.10;;;0.50;99.90;;;;;;4975836;28;20184;-77
2020/12/01 01:19:40;;;;;;;35.40;19.90;;;0.60;99.90;;;;;;4977619;28;20251;-77
2020/12/01 01:22:05;;;;;;;35.53;21.27;;;0.60;99.90;;;;;;4979914;28;20211;-77
2020/12/01 01:24:31;;;;;;;36.83;20.37;;;1.10;99.90;;;;;;4979814;28;20180;-76
2020/12/01 01:26:56;;;;;;;37.00;21.63;;;0.60;99.90;;;;;;4979633;28;20189;-77
2020/12/01 01:29:23;;;;;;;36.83;21.03;;;0.60;99.90;;;;;;4968502;28;20193;-76
2020/12/01 01:31:53;;;;;;;38.03;21.33;;;0.70;99.90;;;;;;4979283;28;20188;-78
2020/12/01 01:34:19;;;;;;;35.00;21.20;;;0.70;99.90;;;;;;4979588;28;20663;-76
2020/12/01 01:36:46;;;;;;;35.93;21.27;;;0.70;99.90;;;;;;4978229;28;20555;-77
2020/12/01 01:39:11;;;;;;;35.70;20.30;;;0.70;99.90;;;;;;4978986;28;20187;-77
2020/12/01 01:41:38;;;;;;;38.67;20.80;;;0.80;99.90;;;;;;4978397;28;20173;-78
2020/12/01 01:44:28;;;;;;;35.67;20.10;;;0.80;99.90;;;;;;4979020;28;20204;-77
2020/12/01 01:47:20;;;;;;;36.23;21.13;;;0.80;99.90;;;;;;4978607;28;20643;-77
2020/12/01 01:49:52;;;;;;;36.97;21.23;;;0.80;99.90;;;;;;4979855;28;20188;-77
2020/12/01 01:52:29;;;;;;;40.60;21.43;;;0.90;99.90;;;;;;4979114;28;20208;-77
2020/12/01 01:55:05;;;;;;;36.57;20.83;;;0.90;99.90;;;;;;4978752;28;20206;-77
2020/12/01 01:57:31;;;;;;;38.57;22.00;;;0.90;99.90;;;;;;4980402;28;20546;-77
2020/12/01 01:59:59;;;;;;;39.17;21.70;;;0.90;99.90;;;;;;4979182;28;20192;-77
2020/12/01 02:02:25;;;;;;;38.60;22.27;;;0.90;99.90;;;;;;4980989;28;20211;-78
2020/12/01 02:04:51;;;;;;;35.17;20.73;;;0.90;99.90;;;;;;4978740;28;20208;-77
2020/12/01 02:07:20;;;;;;;39.10;21.70;;;0.90;99.90;;;;;;4980506;28;20187;-77
2020/12/01 02:09:55;;;;;;;36.53;20.10;;;0.80;99.90;;;;;;4979078;28;20709;-76
2020/12/01 02:12:22;;;;;;;41.13;22.70;;;0.70;99.90;;;;;;4980231;28;20220;-77
2020/12/01 02:14:59;;;;;;;38.27;21.60;;;0.70;99.90;;;;;;4981255;28;20185;-77
2020/12/01 02:17:29;;;;;;;42.33;22.90;;;0.70;99.90;;;;;;4974464;28;20522;-77
2020/12/01 02:20:19;;;;;;;46.63;22.07;;;0.60;99.90;;;;;;4967835;28;20168;-77
2020/12/01 02:22:51;;;;;;;38.13;22.37;;;0.70;99.90;;;;;;4980197;28;20218;-77
2020/12/01 02:25:22;;;;;;;42.77;23.80;;;0.70;99.90;;;;;;4979794;28;20180;-77
2020/12/01 02:27:51;;;;;;;43.13;22.87;;;0.70;99.90;;;;;;4980091;28;20670;-76
2020/12/01 02:30:18;;;;;;;46.83;24.50;;;0.70;99.90;;;;;;4979019;28;20184;-77
2020/12/01 02:32:43;;;;;;;45.20;22.80;;;0.70;99.90;;;;;;4978357;28;20259;-77
2020/12/01 02:35:10;;;;;;;41.90;22.90;;;0.70;99.90;;;;;;4978063;28;20208;-78
2020/12/01 02:37:38;;;;;;;44.07;23.17;;;0.70;99.90;;;;;;4980654;28;20183;-76
2020/12/01 02:40:10;;;;;;;46.37;24.20;;;0.70;99.90;;;;;;4979708;28;20240;-78
2020/12/01 02:42:35;;;;;;;44.33;23.53;;;0.80;99.90;;;;;;4979425;28;20686;-76
2020/12/01 02:45:01;;;;;;;50.80;25.23;;;0.80;99.90;;;;;;4978119;28;20176;-77
2020/12/01 02:47:28;;;;;;;48.33;24.57;;;0.80;99.90;;;;;;4978547;28;20602;-76
2020/12/01 02:49:54;;;;;;;47.23;25.37;;;0.80;99.90;;;;;;4979235;28;20717;-77
2020/12/01 02:52:21;;;;;;;45.33;23.13;;;0.80;99.90;;;;;;4978720;28;20203;-77
2020/12/01 02:54:47;;;;;;;41.40;22.60;;;0.80;99.90;;;;;;4980222;28;20184;-78
2020/12/01 02:57:20;;;;;;;43.93;23.93;;;0.80;99.90;;;;;;4979938;28;20211;-77
2020/12/01 02:59:45;;;;;;;42.80;23.43;;;0.80;99.90;;;;;;4978613;28;20578;-78
2020/12/01 03:02:11;;;;;;;43.63;24.13;;;0.80;99.90;;;;;;4978748;28;20283;-77
2020/12/01 03:04:38;;;;;;;45.50;22.97;;;0.80;99.90;;;;;;4980849;28;20212;-76
2020/12/01 03:07:04;;;;;;;40.87;21.97;;;0.80;99.90;;;;;;4978634;28;20212;-76
2020/12/01 03:09:30;;;;;;;39.70;23.00;;;0.80;99.90;;;;;;4979323;28;20193;-77
2020/12/01 03:11:56;;;;;;;43.50;22.70;;;0.80;99.90;;;;;;4973012;28;20554;-77
2020/12/01 03:14:23;;;;;;;46.67;24.17;;;0.80;99.90;;;;;;4964455;28;20188;-76
2020/12/01 03:16:50;;;;;;;48.00;24.57;;;0.70;99.90;;;;;;4974691;28;20546;-77
2020/12/01 03:19:17;;;;;;;44.60;24.67;;;0.60;99.90;;;;;;4960585;28;20181;-76
2020/12/01 03:21:42;;;;;;;47.70;24.10;;;0.60;99.90;;;;;;4971961;28;20236;-77
2020/12/01 03:24:08;;;;;;;46.60;24.13;;;0.60;99.90;;;;;;4970275;28;20247;-77
2020/12/01 03:26:34;;;;;;;46.77;24.83;;;0.60;99.90;;;;;;4977712;28;20712;-77
2020/12/01 03:29:00;;;;;;;48.53;24.43;;;0.60;99.90;;;;;;4976906;28;20250;-77
2020/12/01 03:31:29;;;;;;;52.77;26.93;;;0.60;99.90;;;;;;4978716;28;20599;-77
2020/12/01 03:33:55;;;;;;;49.93;25.60;;;0.60;99.90;;;;;;4978996;28;20694;-77
2020/12/01 03:36:20;;;;;;;47.03;25.17;;;0.60;99.90;;;;;;4963899;28;20212;-78
2020/12/01 03:38:49;;;;;;;49.10;24.60;;;0.70;99.90;;;;;;4982166;28;20218;-77
2020/12/01 03:41:16;;;;;;;51.93;26.60;;;0.60;99.90;;;;;;4982304;28;20207;-77
2020/12/01 03:43:42;;;;;;;46.50;24.10;;;0.70;99.90;;;;;;4983276;28;20697;-77
2020/12/01 03:46:09;;;;;;;43.77;24.20;;;0.70;99.90;;;;;;4983386;28;20182;-77
2020/12/01 03:48:35;;;;;;;50.23;26.67;;;0.60;99.90;;;;;;4981946;28;20180;-77
2020/12/01 03:51:01;;;;;;;42.27;23.77;;;0.60;99.90;;;;;;4981251;28;20216;-76
2020/12/01 03:53:27;;;;;;;46.33;24.90;;;0.60;99.90;;;;;;4981145;28;20287;-76
2020/12/01 03:55:55;;;;;;;46.73;24.97;;;0.60;99.90;;;;;;4982439;28;20208;-77
2020/12/01 03:58:21;;;;;;;47.50;24.90;;;0.60;99.90;;;;;;4982576;28;20181;-77
2020/12/01 04:00:49;;;;;;;47.00;24.73;;;0.60;99.90;;;;;;4979941;28;20183;-77
2020/12/01 04:03:21;;;;;;;49.23;24.40;;;0.60;99.90;;;;;;4982441;28;20550;-78
2020/12/01 04:05:59;;;;;;;;;;;;;;;;;;;;;
2020/12/01 04:08:25;;;;;;;44.63;23.40;;;0.60;99.90;;;;;;4984393;28;20236;-77
2020/12/01 04:11:12;;;;;;;40.80;22.83;;;0.70;99.90;;;;;;4980354;28;20208;-77
2020/12/01 04:13:38;;;;;;;47.10;23.80;;;0.60;99.90;;;;;;4982699;28;20243;-77
2020/12/01 04:16:04;;;;;;;43.87;24.00;;;0.60;99.90;;;;;;4981713;28;20184;-76
2020/12/01 04:18:30;;;;;;;48.27;24.53;;;0.60;99.90;;;;;;4976556;28;20185;-77
2020/12/01 04:20:59;;;;;;;43.60;23.77;;;0.50;99.90;;;;;;4982392;28;20599;-76
2020/12/01 04:23:24;;;;;;;46.90;24.13;;;0.60;99.90;;;;;;4982053;28;20708;-77
2020/12/01 04:25:50;;;;;;;47.63;23.43;;;0.60;99.90;;;;;;4983273;28;20242;-77
2020/12/01 04:28:16;;;;;;;41.80;22.53;;;0.60;99.90;;;;;;4982472;28;20516;-76
2020/12/01 04:30:52;;;;;;;44.50;24.23;;;0.60;99.90;;;;;;4983126;28;20187;-77
2020/12/01 04:33:18;;;;;;;40.53;22.37;;;0.60;99.90;;;;;;4981834;28;20227;-76
2020/12/01 04:35:50;;;;;;;37.20;20.80;;;0.60;99.90;;;;;;4982184;28;20177;-77
2020/12/01 04:38:26;;;;;;;40.93;22.17;;;0.70;99.90;;;;;;4982988;28;20180;-77
2020/12/01 04:40:53;;;;;;;37.13;21.50;;;0.70;99.90;;;;;;4981107;28;20176;-77
2020/12/01 04:43:43;;;;;;;39.27;21.93;;;0.80;99.90;;;;;;4980219;28;20623;-77
2020/12/01 04:46:18;;;;;;;44.23;22.17;;;0.70;99.90;;;;;;4975335;28;20223;-77
2020/12/01 04:48:50;;;;;;;39.63;20.40;;;0.70;99.90;;;;;;4979907;28;20659;-77
2020/12/01 04:51:26;;;;;;;41.07;21.37;;;0.70;99.90;;;;;;4976689;28;20189;-76
2020/12/01 04:53:54;;;;;;;34.97;20.17;;;0.80;99.90;;;;;;4979944;28;20191;-76
2020/12/01 04:56:48;;;;;;;37.37;20.30;;;0.70;99.90;;;;;;4980759;28;20191;-77
2020/12/01 04:59:23;;;;;;;33.90;19.90;;;0.80;99.90;;;;;;4975595;28;20185;-77
2020/12/01 05:02:10;;;;;;;34.30;19.70;;;0.80;99.90;;;;;;4964300;28;20574;-77
2020/12/01 05:05:08;;;;;;;35.40;19.03;;;0.80;99.90;;;;;;4961528;28;20228;-77
2020/12/01 05:07:52;;;;;;;32.87;19.03;;;0.80;99.90;;;;;;4964647;28;20267;-77
2020/12/01 05:10:20;;;;;;;30.93;17.80;;;0.70;99.90;;;;;;4976674;28;20169;-76
2020/12/01 05:12:57;;;;;;;30.40;18.10;;;0.80;99.90;;;;;;4978408;28;20246;-76
2020/12/01 05:15:48;;;;;;;28.53;17.67;;;0.80;99.90;;;;;;4978009;28;20533;-77
2020/12/01 05:18:18;;;;;;;28.53;17.20;;;0.80;99.90;;;;;;4968893;28;20188;-77
2020/12/01 05:21:01;;;;;;;29.90;17.30;;;0.80;99.90;;;;;;4979129;28;20176;-77
2020/12/01 05:23:38;;;;;;;25.73;16.13;;;0.80;99.90;;;;;;4954964;28;20238;-76
2020/12/01 05:26:08;;;;;;;29.47;17.40;;;0.80;99.90;;;;;;4984737;23;20220;-79
2020/12/01 05:28:49;;;;;;;26.83;17.07;;;0.80;99.90;;;;;;4975064;28;20184;-79
2020/12/01 05:31:17;;;;;;;27.80;16.50;;;0.80;99.90;;;;;;4979126;28;20258;-79
2020/12/01 05:33:42;;;;;;;30.98;17.40;;;0.80;99.90;;;;;;4956715;28;20421;-78
2020/12/01 05:36:30;;;;;;;33.85;23.00;;;0.80;99.90;;;;;;4974861;28;20418;-78
2020/12/01 05:39:06;;;;;;;32.93;19.00;;;0.80;99.90;;;;;;4975386;28;20255;-78
2020/12/01 05:41:36;;;;;;;32.57;18.70;;;0.80;99.90;;;;;;4976424;28;20176;-79
2020/12/01 05:44:24;;;;;;;31.60;18.73;;;0.80;99.90;;;;;;4970139;28;20177;-78
2020/12/01 05:47:11;;;;;;;30.63;16.73;;;0.80;99.90;;;;;;4972958;28;20213;-78
2020/12/01 05:50:05;;;;;;;34.10;18.03;;;0.80;99.90;;;;;;4976679;28;20263;-78
2020/12/01 05:53:01;;;;;;;35.87;20.33;;;0.80;99.90;;;;;;4975912;28;20192;-78
2020/12/01 05:55:27;;;;;;;34.63;19.57;;;0.70;99.90;;;;;;4965976;28;20216;-78
2020/12/01 05:58:03;;;;;;;42.57;21.93;;;0.70;99.90;;;;;;4975697;28;20191;-78
2020/12/01 06:00:32;;;;;;;34.30;20.13;;;0.80;99.90;;;;;;4975794;28;20201;-78
2020/12/01 06:03:11;;;;;;;36.27;19.17;;;0.80;99.90;;;;;;4976109;28;20191;-78
2020/12/01 06:05:40;;;;;;;32.13;17.97;;;0.80;99.90;;;;;;4977662;28;20199;-78
2020/12/01 06:08:53;;;;;;;33.93;17.43;;;0.80;99.90;;;;;;4978302;28;20279;-78
2020/12/01 06:11:39;;;;;;;28.43;16.77;;;0.80;99.90;;;;;;4977641;28;20176;-78
2020/12/01 06:14:42;;;;;;;30.57;17.43;;;0.80;99.90;;;;;;4975687;28;20234;-78
2020/12/01 06:17:15;;;;;;;34.53;19.03;;;0.80;99.90;;;;;;4977310;28;20693;-78
2020/12/01 06:19:53;;;;;;;35.07;18.57;;;0.80;99.90;;;;;;4975750;28;20610;-78
2020/12/01 06:22:19;;;;;;;31.60;18.37;;;0.80;99.90;;;;;;4970404;28;20183;-78
2020/12/01 06:25:14;;;;;;;33.00;18.13;;;0.80;99.90;;;;;;4978216;28;20180;-79
2020/12/01 06:28:07;;;;;;;35.97;18.97;;;0.80;99.90;;;;;;4977619;28;20253;-78
2020/12/01 06:30:33;;;;;;;36.40;19.43;;;0.70;99.90;;;;;;4977243;28;20184;-79
2020/12/01 06:33:23;;;;;;;34.40;19.20;;;0.80;99.90;;;;;;4976288;28;20206;-79
2020/12/01 06:36:12;;;;;;;33.87;17.87;;;0.80;99.90;;;;;;4977547;28;20203;-79
2020/12/01 06:38:51;;;;;;;35.63;19.50;;;0.80;99.90;;;;;;4978555;28;20650;-78
2020/12/01 06:41:21;;;;;;;34.33;20.07;;;0.80;99.90;;;;;;4978406;28;20642;-79
2020/12/01 06:43:51;;;;;;;34.87;18.67;;;0.80;99.90;;;;;;4978163;28;20219;-79
2020/12/01 06:46:47;;;;;;;29.70;17.87;;;1.00;99.90;;;;;;4978161;28;20214;-78
2020/12/01 06:49:27;;;;;;;32.33;18.83;;;0.90;99.90;;;;;;4978438;28;20179;-78
2020/12/01 06:51:57;;;;;;;29.37;17.40;;;0.90;99.90;;;;;;4976829;28;20259;-79
2020/12/01 06:54:23;;;;;;;32.47;17.70;;;0.90;99.90;;;;;;4976828;28;20195;-78
2020/12/01 06:57:23;;;;;;;29.50;18.30;;;0.90;99.90;;;;;;4976463;28;20744;-78
2020/12/01 06:59:48;;;;;;;29.43;16.20;;;0.90;99.90;;;;;;4961686;28;20638;-78
2020/12/01 07:02:32;;;;;;;28.07;17.37;;;0.90;99.90;;;;;;4965142;28;20176;-78
2020/12/01 07:05:23;;;;;;;28.67;18.07;;;0.90;99.90;;;;;;4977612;28;20190;-78
2020/12/01 07:07:49;;;;;;;33.97;17.97;;;0.80;99.90;;;;;;4971785;28;20247;-79
2020/12/01 07:10:30;;;;;;;29.57;17.67;;;0.90;99.90;;;;;;4979917;28;20184;-79
2020/12/01 07:13:11;;;;;;;32.63;18.47;;;0.90;99.90;;;;;;4983139;28;20251;-79
2020/12/01 07:15:43;;;;;;;29.83;17.43;;;0.90;99.90;;;;;;4982265;28;20267;-79
2020/12/01 07:18:20;;;;;;;34.20;18.10;;;0.90;99.90;;;;;;4984672;28;20176;-78
2020/12/01 07:21:12;;;;;;;31.37;18.57;;;0.90;99.90;;;;;;4977546;28;20188;-78
2020/12/01 07:23:58;;;;;;;34.73;18.93;;;0.90;99.90;;;;;;4973981;28;20188;-79
2020/12/01 07:26:48;;;;;;;31.53;18.33;;;1.00;99.90;;;;;;4979806;28;20208;-79
2020/12/01 07:29:28;;;;;;;24.73;16.33;;;1.00;99.90;;;;;;4983925;28;20180;-79
2020/12/01 07:32:11;;;;;;;30.77;18.33;;;1.00;99.90;;;;;;4981951;28;20179;-78
2020/12/01 07:34:39;;;;;;;29.53;17.53;;;1.00;99.90;;;;;;4982328;28;20267;-78
2020/12/01 07:37:22;;;;;;;30.67;16.67;;;0.90;99.90;;;;;;4982081;28;20196;-78
2020/12/01 07:39:55;;;;;;;31.40;17.93;;;0.90;99.90;;;;;;4981082;28;20187;-78
2020/12/01 07:42:25;;;;;;;32.40;18.47;;;0.90;99.90;;;;;;4981985;28;20179;-78
2020/12/01 07:44:50;;;;;;;32.00;18.73;;;0.90;99.90;;;;;;4981499;28;20185;-79
2020/12/01 07:47:19;;;;;;;31.73;18.50;;;0.90;99.90;;;;;;4983964;28;20244;-79
2020/12/01 07:50:00;;;;;;;31.60;17.90;;;1.00;99.90;;;;;;4984632;28;20260;-77
2020/12/01 07:52:34;;;;;;;27.37;17.03;;;0.90;99.90;;;;;;4982876;28;20177;-78
2020/12/01 07:55:28;;;;;;;30.87;16.20;;;1.00;99.90;;;;;;4981160;28;20199;-78
2020/12/01 07:58:05;;;;;;;31.50;18.60;;;1.00;99.90;;;;;;4981125;28;20542;-78
2020/12/01 08:00:31;;;;;;;31.47;18.93;;;1.00;99.90;;;;;;4982751;28;20189;-79
2020/12/01 08:03:03;;;;;;;29.67;17.70;;;1.00;99.90;;;;;;4982656;28;20198;-77
2020/12/01 08:05:29;;;;;;;27.50;17.27;;;1.10;99.90;;;;;;4982005;28;20698;-78
2020/12/01 08:07:56;;;;;;;32.53;19.03;;;1.10;99.90;;;;;;4982445;28;20238;-78
2020/12/01 08:10:23;;;;;;;31.50;17.63;;;1.10;99.90;;;;;;4983654;28;20251;-79
2020/12/01 08:12:53;;;;;;;30.93;18.50;;;1.20;99.90;;;;;;4984178;28;20180;-79
2020/12/01 08:15:22;;;;;;;31.63;17.63;;;1.20;99.90;;;;;;4983436;28;20351;-77
2020/12/01 08:17:49;;;;;;;27.70;16.60;;;1.20;99.90;;;;;;4983046;28;20587;-79
2020/12/01 08:20:23;;;;;;;32.73;16.63;;;1.20;99.90;;;;;;4980287;28;20177;-79
2020/12/01 08:23:18;;;;;;;24.00;15.77;;;1.30;99.90;;;;;;4978379;28;20178;-79
2020/12/01 08:25:52;;;;;;;27.40;16.53;;;1.30;99.90;;;;;;4980341;28;20563;-78
2020/12/01 08:28:54;;;;;;;25.50;16.03;;;1.30;99.90;;;;;;4981641;28;20176;-79
2020/12/01 08:31:55;;;;;;;31.70;17.13;;;1.40;99.90;;;;;;4981344;28;20187;-79
2020/12/01 08:34:35;;;;;;;28.53;16.53;;;1.30;99.90;;;;;;4981998;28;20605;-79
2020/12/01 08:37:08;;;;;;;23.43;16.03;;;1.30;99.90;;;;;;4982393;28;20234;-79
2020/12/01 08:40:05;;;;;;;23.80;15.30;;;1.30;99.90;;;;;;4980337;28;20189;-78
2020/12/01 08:42:41;;;;;;;26.30;16.37;;;1.30;99.90;;;;;;4980127;28;20172;-77
2020/12/01 08:45:21;;;;;;;26.60;16.47;;;1.30;99.90;;;;;;4979809;28;20187;-79
2020/12/01 08:47:48;;;;;;;26.40;16.23;;;1.30;99.90;;;;;;4979543;28;20211;-79
2020/12/01 08:50:26;;;;;;;22.33;14.90;;;1.30;99.90;;;;;;4979253;28;20176;-78
2020/12/01 08:53:23;;;;;;;24.70;15.73;;;1.20;99.90;;;;;;4979046;28;20179;-78
2020/12/01 08:55:52;;;;;;;23.20;15.50;;;1.30;99.90;;;;;;4967207;28;20250;-78
2020/12/01 08:58:22;;;;;;;26.33;15.27;;;1.30;99.90;;;;;;4965379;28;20182;-79
2020/12/01 09:01:01;;;;;;;27.80;15.60;;;1.30;99.90;;;;;;4966210;28;20524;-78
2020/12/01 09:03:30;;;;;;;26.77;16.37;;;1.40;99.90;;;;;;4978984;28;20203;-78
2020/12/01 09:05:57;;;;;;;21.80;14.17;;;1.40;99.90;;;;;;4978427;28;20207;-79
2020/12/01 09:22:30;;;;;;;15.97;9.97;;;1.50;99.90;;;;;;4968825;28;20647;-78
2020/12/01 09:25:16;;;;;;;14.87;8.87;;;1.50;99.90;;;;;;4976601;28;20173;-78
2020/12/01 09:27:43;;;;;;;17.07;11.00;;;1.50;99.90;;;;;;4962942;28;20177;-79
2020/12/01 09:30:36;;;;;;;20.13;10.40;;;1.50;99.90;;;;;;4964007;28;20176;-78
2020/12/01 09:33:07;;;;;;;14.47;8.97;;;1.50;99.90;;;;;;4977219;28;20548;-78
2020/12/01 09:35:33;;;;;;;12.70;8.63;;;1.50;99.90;;;;;;4971893;28;20208;-78
2020/12/01 09:38:00;;;;;;;10.67;8.90;;;1.50;99.90;;;;;;4977468;28;20184;-79
2020/12/01 09:40:28;;;;;;;8.60;7.37;;;1.50;99.90;;;;;;4978056;28;20235;-79
2020/12/01 09:42:58;;;;;;;10.20;8.07;;;1.50;99.90;;;;;;4977488;28;20188;-78
2020/12/01 09:45:29;;;;;;;10.47;7.63;;;1.40;99.90;;;;;;4975537;28;20299;-78
2020/12/01 09:50:51;;;;;;;8.80;6.87;;;1.50;99.90;;;;;;4968287;28;20275;-78
2020/12/01 09:56:02;;;;;;;9.47;7.00;;;1.40;99.90;;;;;;4977132;28;20287;-78
2020/12/01 10:19:49;;;;;;;4.87;4.40;;;1.50;99.90;;;;;;4976991;28;20179;-79
2020/12/01 10:35:48;;;;;;;4.83;4.33;;;1.50;99.90;;;;;;4977219;28;20219;-78
2020/12/01 10:38:17;;;;;;;5.00;4.50;;;1.50;99.90;;;;;;4978187;28;20577;-78
2020/12/01 10:40:43;;;;;;;5.07;4.57;;;1.50;99.90;;;;;;4977652;28;20187;-78
2020/12/01 10:43:09;;;;;;;5.57;4.57;;;1.50;99.90;;;;;;4977205;28;20549;-78
2020/12/01 10:45:35;;;;;;;6.93;5.17;;;1.50;99.90;;;;;;4977057;28;20208;-77
2020/12/01 10:48:01;;;;;;;8.67;6.10;;;1.50;99.90;;;;;;4976441;28;20191;-78
2020/12/01 10:50:29;;;;;;;8.20;6.43;;;1.60;99.90;;;;;;4977207;28;20176;-78
2020/12/01 10:52:55;;;;;;;7.63;6.37;;;1.70;99.90;;;;;;4977321;28;20251;-77
2020/12/01 10:55:29;;;;;;;7.80;7.00;;;1.80;99.90;;;;;;4977092;28;20287;-79
2020/12/01 10:57:56;;;;;;;9.27;7.43;;;1.80;99.90;;;;;;4976794;28;20206;-78
2020/12/01 11:00:24;;;;;;;7.57;6.73;;;1.80;99.90;;;;;;4975416;28;20651;-79
2020/12/01 11:02:51;;;;;;;7.27;6.17;;;1.90;99.90;;;;;;4976620;28;20189;-78
2020/12/01 11:05:25;;;;;;;8.10;6.13;;;1.80;99.90;;;;;;4976576;28;20298;-79
2020/12/01 11:07:51;;;;;;;8.40;7.00;;;1.90;99.90;;;;;;4977377;28;20271;-79
2020/12/01 11:10:17;;;;;;;7.30;6.57;;;1.90;99.90;;;;;;4977881;28;20201;-79
2020/12/01 11:12:42;;;;;;;7.23;6.53;;;1.90;99.90;;;;;;4978387;28;20661;-78
2020/12/01 11:15:09;;;;;;;7.50;6.70;;;1.90;99.90;;;;;;4979041;28;20581;-78
2020/12/01 11:17:35;;;;;;;9.33;7.70;;;1.90;99.90;;;;;;4979001;28;20334;-78
2020/12/01 11:20:06;;;;;;;7.50;6.80;;;1.90;99.90;;;;;;4977912;28;20630;-79
2020/12/01 11:22:32;;;;;;;6.67;6.07;;;2.00;99.90;;;;;;4972342;28;20556;-77
2020/12/01 11:24:58;;;;;;;6.63;6.03;;;2.00;99.90;;;;;;4977968;28;20180;-79
2020/12/01 11:27:24;;;;;;;8.90;7.43;;;2.00;99.90;;;;;;4981355;23;20226;-79
2020/12/01 11:29:50;;;;;;;7.87;7.07;;;2.00;99.90;;;;;;4956371;29;20181;-81
2020/12/01 11:32:15;;;;;;;8.70;7.57;;;2.10;99.90;;;;;;4954529;29;20182;-80
2020/12/01 11:34:42;;;;;;;9.43;6.77;;;2.10;99.90;;;;;;4943067;29;20181;-80
2020/12/01 11:37:07;;;;;;;12.50;11.30;;;2.10;99.90;;;;;;4953441;29;20206;-80
2020/12/01 11:39:33;;;;;;;8.70;7.80;;;2.20;99.90;;;;;;4941882;29;20268;-80
2020/12/01 11:41:59;;;;;;;7.90;7.10;;;2.20;99.90;;;;;;4950560;29;20229;-79
2020/12/01 11:44:25;;;;;;;8.67;7.77;;;2.20;99.90;;;;;;4948901;29;20179;-80
2020/12/01 11:46:51;;;;;;;8.87;8.07;;;2.20;99.90;;;;;;4936346;29;20273;-81
2020/12/01 11:49:17;;;;;;;9.73;8.80;;;2.10;99.90;;;;;;4949600;29;20174;-79
2020/12/01 11:51:43;;;;;;;10.83;9.73;;;2.10;99.90;;;;;;4957099;29;20205;-78
2020/12/01 11:54:10;;;;;;;10.83;9.63;;;2.10;99.90;;;;;;4951270;29;20253;-81
2020/12/01 11:56:36;;;;;;;8.67;7.87;;;2.20;99.90;;;;;;4946505;29;20202;-79
2020/12/01 11:59:12;;;;;;;10.53;8.73;;;2.20;99.90;;;;;;4956664;29;20174;-79
2020/12/01 12:01:41;;;;;;;9.30;7.80;;;2.20;99.90;;;;;;4945343;29;20178;-81
2020/12/01 12:04:13;;;;;;;10.87;8.37;;;2.10;99.90;;;;;;4957684;29;20197;-79
2020/12/01 12:06:38;;;;;;;10.23;8.87;;;2.10;99.90;;;;;;4957935;29;20220;-80
2020/12/01 12:09:09;;;;;;;8.83;7.90;;;2.10;99.90;;;;;;4957055;29;20170;-80
2020/12/01 12:11:38;;;;;;;12.13;8.37;;;2.00;99.90;;;;;;4956496;29;20209;-81
2020/12/01 12:14:04;;;;;;;10.10;9.10;;;2.00;99.90;;;;;;4953461;29;20174;-81
2020/12/01 12:16:31;;;;;;;10.43;9.43;;;2.10;99.90;;;;;;4958674;29;20221;-79
2020/12/01 12:18:59;;;;;;;10.47;8.43;;;2.10;99.90;;;;;;4960247;29;20633;-80
2020/12/01 12:21:26;;;;;;;12.63;8.67;;;2.30;99.90;;;;;;4957667;29;20188;-79
2020/12/01 12:23:52;;;;;;;12.20;8.67;;;2.10;99.90;;;;;;4960408;29;20174;-79
2020/12/01 12:26:18;;;;;;;10.60;8.83;;;2.20;99.90;;;;;;4958158;29;20238;-80
2020/12/01 12:28:45;;;;;;;12.67;9.57;;;2.20;99.90;;;;;;4955432;29;20206;-80
2020/12/01 12:31:18;;;;;;;12.03;9.10;;;2.20;99.90;;;;;;4956087;29;20202;-80
2020/12/01 12:33:44;;;;;;;10.47;8.60;;;2.30;99.90;;;;;;4929402;29;20186;-80
2020/12/01 12:36:24;;;;;;;;;;;;;;;;;;;;;
2020/12/01 12:38:50;;;;;;;10.60;9.43;;;2.30;99.90;;;;;;4931880;29;20209;-80
2020/12/01 12:41:17;;;;;;;11.40;8.77;;;2.20;99.90;;;;;;4940165;29;20191;-80
2020/12/01 12:44:00;;;;;;;8.63;7.73;;;2.30;99.90;;;;;;4933362;29;20255;-81
2020/12/01 12:46:42;;;;;;;8.80;7.93;;;2.20;99.90;;;;;;4934906;29;20297;-80
2020/12/01 12:49:09;;;;;;;9.93;8.30;;;2.20;99.90;;;;;;4933777;29;20167;-79
2020/12/01 12:51:34;;;;;;;9.80;8.67;;;2.30;99.90;;;;;;4950614;29;20222;-79
2020/12/01 12:54:03;;;;;;;9.83;8.83;;;2.30;99.90;;;;;;4935426;29;20181;-79
2020/12/01 12:56:32;;;;;;;8.77;7.93;;;2.30;99.90;;;;;;4936304;29;20190;-80
2020/12/01 12:59:04;;;;;;;8.93;7.80;;;2.30;99.90;;;;;;4932352;29;20199;-80
2020/12/01 13:01:40;;;;;;;10.90;8.30;;;2.40;99.90;;;;;;4951288;29;20808;-81
2020/12/01 13:04:06;;;;;;;8.07;6.60;;;2.40;99.90;;;;;;4941491;29;20212;-81
2020/12/01 13:06:32;;;;;;;7.93;7.13;;;2.30;99.90;;;;;;4933064;29;20229;-81
2020/12/01 13:09:01;;;;;;;21.20;13.63;;;2.40;99.90;;;;;;4934798;29;20191;-79
2020/12/01 13:11:29;;;;;;;12.47;9.17;;;2.50;99.90;;;;;;4948642;29;20183;-78
2020/12/01 13:13:55;;;;;;;9.07;7.77;;;2.40;99.90;;;;;;4945228;29;20182;-79
2020/12/01 13:16:28;;;;;;;8.27;7.47;;;2.50;99.90;;;;;;4955458;29;20237;-80
2020/12/01 13:18:54;;;;;;;8.70;7.73;;;2.30;99.90;;;;;;4933300;29;20183;-79
2020/12/01 13:21:20;;;;;;;10.97;7.50;;;2.30;99.90;;;;;;4957938;29;20209;-80
2020/12/01 13:23:49;;;;;;;9.90;7.27;;;2.30;99.90;;;;;;4934730;29;20184;-80
2020/12/01 13:26:24;;;;;;;7.77;7.00;;;2.20;99.90;;;;;;4942794;29;20270;-80
2020/12/01 13:28:49;;;;;;;10.00;7.50;;;2.20;99.90;;;;;;4951413;28;20572;-78
2020/12/01 13:31:24;;;;;;;7.53;6.70;;;2.10;99.90;;;;;;4934405;29;20196;-80
2020/12/01 13:33:53;;;;;;;7.70;6.97;;;2.00;99.90;;;;;;4938779;29;20192;-80
2020/12/01 13:36:21;;;;;;;8.10;7.30;;;2.20;99.90;;;;;;4932546;29;20242;-80
2020/12/01 13:38:47;;;;;;;10.07;9.07;;;2.10;99.90;;;;;;4933060;29;20186;-80
2020/12/01 13:41:13;;;;;;;10.00;8.43;;;2.10;99.90;;;;;;4944147;29;20172;-81
2020/12/01 13:43:42;;;;;;;8.30;7.50;;;2.20;99.90;;;;;;4924058;29;20187;-79
2020/12/01 13:46:08;;;;;;;8.70;7.20;;;2.20;99.90;;;;;;4938291;29;20224;-79
2020/12/01 13:48:35;;;;;;;9.23;8.00;;;2.20;99.90;;;;;;4927898;29;20241;-79
2020/12/01 13:51:10;;;;;;;9.50;8.13;;;2.20;99.90;;;;;;4928875;29;20182;-81
2020/12/01 13:53:36;;;;;;;9.47;8.40;;;2.20;99.90;;;;;;4925895;29;20180;-80
2020/12/01 13:56:06;;;;;;;8.17;6.33;;;2.30;99.90;;;;;;4931307;29;20175;-80
2020/12/01 13:58:33;;;;;;;9.87;7.97;;;2.40;99.90;;;;;;4929051;29;20210;-79
2020/12/01 14:00:59;;;;;;;8.13;7.17;;;2.30;99.90;;;;;;4922109;29;20215;-80
2020/12/01 14:03:25;;;;;;;9.90;7.33;;;2.30;99.90;;;;;;4924990;29;20186;-79